createdAt,value
2022-10-20T00:01:19.097Z,1.20
2022-10-20T00:03:46.605Z,1.00
2022-10-20T00:06:16.469Z,2.50
2022-10-20T00:08:44.454Z,2.03
2022-10-20T00:11:13.280Z,5.57
2022-10-20T00:13:41.804Z,7.53
2022-10-20T00:16:09.212Z,7.80
2022-10-20T00:18:36.942Z,9.00
2022-10-20T00:21:09.403Z,11.90
2022-10-20T00:23:36.896Z,6.87
2022-10-20T00:26:10.711Z,9.77
2022-10-20T00:28:37.930Z,8.63
2022-10-20T00:31:05.790Z,8.43
2022-10-20T00:33:33.698Z,7.93
2022-10-20T00:36:02.413Z,4.70
2022-10-20T00:38:29.572Z,4.90
2022-10-20T00:40:56.773Z,2.70
2022-10-20T00:43:24.474Z,0.97
2022-10-20T00:45:57.287Z,2.93
2022-10-20T00:48:35.145Z,0.97
2022-10-20T00:51:02.703Z,9.63
2022-10-20T00:53:31.433Z,4.13
2022-10-20T00:56:00.112Z,7.80
2022-10-20T00:58:28.176Z,2.03
2022-10-20T01:00:58.186Z,3.87
2022-10-20T01:03:30.385Z,2.73
2022-10-20T01:05:57.595Z,3.23
2022-10-20T01:08:25.074Z,1.63
2022-10-20T01:11:27.809Z,1.77
2022-10-20T01:14:13.225Z,2.80
2022-10-20T01:16:49.429Z,8.83
2022-10-20T01:19:48.077Z,1.10
2022-10-20T01:22:43.090Z,1.20
2022-10-20T01:25:18.755Z,7.17
2022-10-20T01:27:48.917Z,0.93
2022-10-20T01:30:21.799Z,0.90
2022-10-20T01:33:00.615Z,1.10
2022-10-20T01:35:57.724Z,2.77
2022-10-20T01:38:36.479Z,2.33
2022-10-20T01:41:28.904Z,9.77
2022-10-20T01:43:56.466Z,3.57
2022-10-20T01:46:25.744Z,1.00
2022-10-20T01:48:53.415Z,2.60
2022-10-20T01:51:20.564Z,0.90
2022-10-20T01:53:47.661Z,1.17
2022-10-20T01:56:31.046Z,0.97
2022-10-20T01:59:09.207Z,9.23
2022-10-20T02:01:42.086Z,6.83
2022-10-20T02:04:10.223Z,7.03
2022-10-20T02:06:46.362Z,8.57
2022-10-20T02:09:19.271Z,4.13
2022-10-20T02:11:57.156Z,1.13
2022-10-20T02:14:24.532Z,1.13
2022-10-20T02:17:00.855Z,1.00
2022-10-20T02:19:31.764Z,5.87
2022-10-20T02:21:58.809Z,6.27
2022-10-20T02:24:30.940Z,2.83
2022-10-20T02:27:02.025Z,4.67
2022-10-20T02:29:33.096Z,7.23
2022-10-20T02:32:00.316Z,4.10
2022-10-20T02:34:27.709Z,2.60
2022-10-20T02:36:59.425Z,1.63
2022-10-20T02:39:27.295Z,2.10
2022-10-20T02:41:54.969Z,1.90
2022-10-20T02:44:23.144Z,1.10
2022-10-20T02:46:50.535Z,0.90
2022-10-20T02:49:17.573Z,1.30
2022-10-20T02:51:44.601Z,1.53
2022-10-20T02:54:12.092Z,7.07
2022-10-20T02:56:39.177Z,7.30
2022-10-20T02:59:06.298Z,9.93
2022-10-20T03:01:33.720Z,9.07
2022-10-20T03:04:00.916Z,4.77
2022-10-20T03:06:27.996Z,4.10
2022-10-20T03:08:55.224Z,2.83
2022-10-20T03:11:23.229Z,1.00
2022-10-20T03:13:50.715Z,1.20
2022-10-20T03:16:18.198Z,1.10
2022-10-20T03:18:45.433Z,1.10
2022-10-20T03:21:12.515Z,4.90
2022-10-20T03:23:39.547Z,8.10
2022-10-20T03:26:08.336Z,9.10
2022-10-20T03:28:35.463Z,9.17
2022-10-20T03:31:02.640Z,10.43
2022-10-20T03:33:29.628Z,3.97
2022-10-20T03:35:56.858Z,2.57
2022-10-20T03:38:24.584Z,1.30
2022-10-20T03:40:51.756Z,1.60
2022-10-20T03:43:19.043Z,1.00
2022-10-20T03:45:48.776Z,1.17
2022-10-20T03:48:15.975Z,1.10
2022-10-20T03:50:43.675Z,3.37
2022-10-20T03:53:14.893Z,7.07
2022-10-20T03:55:42.142Z,4.93
2022-10-20T03:58:09.225Z,6.83
2022-10-20T04:00:36.390Z,8.63
2022-10-20T04:03:03.783Z,13.63
2022-10-20T04:05:30.945Z,4.17
2022-10-20T04:07:58.083Z,4.50
2022-10-20T04:10:25.215Z,2.67
2022-10-20T04:12:53.239Z,2.47
2022-10-20T04:15:21.225Z,1.33
2022-10-20T04:17:48.227Z,0.90
2022-10-20T04:20:15.306Z,1.07
2022-10-20T04:22:42.619Z,4.70
2022-10-20T04:25:12.106Z,8.50
2022-10-20T04:27:42.228Z,7.90
2022-10-20T04:30:10.262Z,9.23
2022-10-20T04:32:37.319Z,10.27
2022-10-20T04:35:04.696Z,12.00
2022-10-20T04:37:31.753Z,8.77
2022-10-20T04:39:58.817Z,7.83
2022-10-20T04:42:25.948Z,4.97
2022-10-20T04:44:53.763Z,1.70
2022-10-20T04:47:21.538Z,1.30
2022-10-20T04:49:49.185Z,1.20
2022-10-20T04:52:17.326Z,1.03
2022-10-20T04:54:44.446Z,2.20
2022-10-20T04:57:11.578Z,6.10
2022-10-20T04:59:38.584Z,7.37
2022-10-20T05:02:05.823Z,9.33
2022-10-20T05:04:32.899Z,8.47
2022-10-20T05:06:59.915Z,6.23
2022-10-20T05:09:27.093Z,2.10
2022-10-20T05:11:54.133Z,1.40
2022-10-20T05:14:22.497Z,1.20
2022-10-20T05:16:49.491Z,1.67
2022-10-20T05:19:17.062Z,1.10
2022-10-20T05:21:44.828Z,2.47
2022-10-20T05:24:16.864Z,5.50
2022-10-20T05:26:47.243Z,1.30
2022-10-20T05:29:14.533Z,2.13
2022-10-20T05:31:43.198Z,6.30
2022-10-20T05:34:11.420Z,7.60
2022-10-20T05:36:38.869Z,8.47
2022-10-20T05:39:06.463Z,7.80
2022-10-20T05:41:37.852Z,9.87
2022-10-20T05:44:08.743Z,7.90
2022-10-20T05:46:38.562Z,7.63
2022-10-20T05:49:05.990Z,9.60
2022-10-20T05:51:35.957Z,7.83
2022-10-20T05:54:04.469Z,8.57
2022-10-20T05:56:32.126Z,10.23
2022-10-20T05:58:59.231Z,7.37
2022-10-20T06:01:28.661Z,2.53
2022-10-20T06:04:00.206Z,4.27
2022-10-20T06:06:29.859Z,2.00
2022-10-20T06:08:59.615Z,2.10
2022-10-20T06:11:27.228Z,2.30
2022-10-20T06:13:54.830Z,1.37
2022-10-20T06:16:26.148Z,1.10
2022-10-20T06:18:54.180Z,1.10
2022-10-20T06:21:23.575Z,1.00
2022-10-20T06:23:52.081Z,1.20
2022-10-20T06:26:22.462Z,1.00
2022-10-20T06:28:52.836Z,1.77
2022-10-20T06:31:41.158Z,1.33
2022-10-20T06:34:10.911Z,8.73
2022-10-20T06:36:42.601Z,6.93
2022-10-20T06:39:13.068Z,7.93
2022-10-20T06:41:40.714Z,8.10
2022-10-20T06:44:08.058Z,9.10
2022-10-20T06:46:37.739Z,8.07
2022-10-20T06:49:06.997Z,10.73
2022-10-20T06:51:35.544Z,9.10
2022-10-20T06:54:03.179Z,10.60
2022-10-20T06:56:32.405Z,4.70
2022-10-20T06:59:00.209Z,5.90
2022-10-20T07:01:32.664Z,4.87
2022-10-20T07:04:02.144Z,5.13
2022-10-20T07:06:39.931Z,7.07
2022-10-20T07:09:11.841Z,7.00
2022-10-20T07:11:38.978Z,7.00
2022-10-20T07:14:06.103Z,7.37
2022-10-20T07:16:35.390Z,8.23
2022-10-20T07:19:03.419Z,9.53
2022-10-20T07:21:35.725Z,3.67
2022-10-20T07:24:06.619Z,11.67
2022-10-20T07:26:39.211Z,9.30
2022-10-20T07:29:06.462Z,7.73
2022-10-20T07:31:42.522Z,10.30
2022-10-20T07:34:24.873Z,7.87
2022-10-20T07:36:54.082Z,1.23
2022-10-20T07:39:21.712Z,1.10
2022-10-20T07:41:48.878Z,1.53
2022-10-20T07:44:16.437Z,0.97
2022-10-20T07:46:44.128Z,3.30
2022-10-20T07:51:58.524Z,3.57
2022-10-20T07:54:25.778Z,2.43
2022-10-20T07:56:53.969Z,2.10
2022-10-20T07:59:21.108Z,1.10
2022-10-20T08:01:48.310Z,1.13
2022-10-20T08:04:18.602Z,1.07
2022-10-20T08:06:47.479Z,0.83
2022-10-20T08:09:14.592Z,2.20
2022-10-20T08:11:41.865Z,5.83
2022-10-20T08:14:08.881Z,6.67
2022-10-20T08:16:38.490Z,6.87
2022-10-20T08:19:11.815Z,8.43
2022-10-20T08:21:38.959Z,6.80
2022-10-20T08:24:06.283Z,6.77
2022-10-20T08:26:33.539Z,8.07
2022-10-20T08:29:00.700Z,3.40
2022-10-20T08:31:27.803Z,1.97
2022-10-20T08:33:55.400Z,11.93
2022-10-20T08:36:22.821Z,1.10
2022-10-20T08:38:49.808Z,1.33
2022-10-20T08:41:23.291Z,0.93
2022-10-20T08:43:54.063Z,0.80
2022-10-20T08:46:25.261Z,2.53
2022-10-20T08:48:53.338Z,2.23
2022-10-20T08:51:24.231Z,0.80
2022-10-20T08:53:54.222Z,1.20
2022-10-20T08:56:24.335Z,1.03
2022-10-20T08:58:52.255Z,1.10
2022-10-20T09:01:25.218Z,0.80
2022-10-20T09:04:26.584Z,2.23
2022-10-20T09:07:00.753Z,0.83
2022-10-20T09:09:30.324Z,1.93
2022-10-20T09:12:06.865Z,2.33
2022-10-20T09:14:36.594Z,7.10
2022-10-20T09:17:09.144Z,9.00
2022-10-20T09:19:38.830Z,7.50
2022-10-20T09:22:07.041Z,6.73
2022-10-20T09:24:38.054Z,10.60
2022-10-20T09:27:21.313Z,9.07
2022-10-20T09:29:48.737Z,1.00
2022-10-20T09:32:56.717Z,0.93
2022-10-20T09:35:23.461Z,1.00
2022-10-20T09:38:25.343Z,0.83
2022-10-20T09:41:23.052Z,2.03
2022-10-20T09:43:57.183Z,0.90
2022-10-20T09:46:33.451Z,1.63
2022-10-20T09:49:00.979Z,3.43
2022-10-20T09:51:29.027Z,2.53
2022-10-20T09:53:59.337Z,3.30
2022-10-20T09:56:34.533Z,2.57
2022-10-20T09:59:03.426Z,9.03
2022-10-20T10:01:30.984Z,2.80
2022-10-20T10:04:02.358Z,2.60
2022-10-20T10:06:42.099Z,4.67
2022-10-20T10:09:34.420Z,6.33
2022-10-20T10:12:14.530Z,8.10
2022-10-20T10:14:55.107Z,5.43
2022-10-20T10:17:32.271Z,0.90
2022-10-20T10:20:03.098Z,4.67
2022-10-20T10:22:30.203Z,3.47
2022-10-20T10:24:58.580Z,1.83
2022-10-20T10:27:30.882Z,2.47
2022-10-20T10:30:30.353Z,2.20
2022-10-20T10:32:57.552Z,2.43
2022-10-20T10:35:40.458Z,0.83
2022-10-20T10:38:10.299Z,5.83
2022-10-20T10:41:08.700Z,6.20
2022-10-20T10:43:44.971Z,5.97
2022-10-20T10:46:22.219Z,1.30
2022-10-20T10:48:59.604Z,1.33
2022-10-20T10:51:45.929Z,2.33
2022-10-20T10:54:42.265Z,2.70
2022-10-20T10:57:57.837Z,5.93
2022-10-20T11:00:54.328Z,0.73
2022-10-20T11:03:46.240Z,0.90
2022-10-20T11:06:24.610Z,3.00
2022-10-20T11:09:10.766Z,1.00
2022-10-20T11:11:37.835Z,6.07
2022-10-20T11:14:20.608Z,8.10
2022-10-20T11:17:16.167Z,1.00
2022-10-20T11:20:07.548Z,2.80
2022-10-20T11:22:44.284Z,5.53
2022-10-20T11:25:20.196Z,5.33
2022-10-20T11:27:47.410Z,1.00
2022-10-20T11:30:19.521Z,1.93
2022-10-20T11:33:01.673Z,1.10
2022-10-20T11:35:53.203Z,4.27
2022-10-20T11:38:44.142Z,0.87
2022-10-20T11:41:45.479Z,5.87
2022-10-20T11:44:24.129Z,3.87
2022-10-20T11:47:14.243Z,0.80
2022-10-20T11:49:41.611Z,6.00
2022-10-20T11:52:35.191Z,5.37
2022-10-20T11:55:31.130Z,5.87
2022-10-20T11:58:19.260Z,2.37
2022-10-20T12:01:20.120Z,0.90
2022-10-20T12:03:59.363Z,0.90
2022-10-20T12:06:46.862Z,2.30
2022-10-20T12:12:27.570Z,3.07
2022-10-20T12:15:00.302Z,1.67
2022-10-20T12:17:41.996Z,1.87
2022-10-20T12:20:21.816Z,5.67
2022-10-20T12:22:53.981Z,0.87
2022-10-20T12:25:26.882Z,0.80
2022-10-20T12:28:25.156Z,1.03
2022-10-20T12:31:00.861Z,1.77
2022-10-20T12:34:01.097Z,1.83
2022-10-20T12:36:38.544Z,1.87
2022-10-20T12:39:20.928Z,6.40
2022-10-20T12:41:56.503Z,0.90
2022-10-20T12:44:24.440Z,0.90
2022-10-20T12:47:22.774Z,0.87
2022-10-20T12:50:00.372Z,1.07
2022-10-20T12:52:39.492Z,2.43
2022-10-20T12:55:22.610Z,5.63
2022-10-20T12:57:49.797Z,1.23
2022-10-20T13:00:20.172Z,1.00
2022-10-20T13:02:56.972Z,0.80
2022-10-20T13:05:28.245Z,0.90
2022-10-20T13:08:00.330Z,2.20
2022-10-20T13:10:30.052Z,1.77
2022-10-20T13:13:02.926Z,2.10
2022-10-20T13:15:56.259Z,4.10
2022-10-20T13:18:28.663Z,1.00
2022-10-20T13:21:06.975Z,2.40
2022-10-20T13:24:08.397Z,5.97
2022-10-20T13:26:44.497Z,7.13
2022-10-20T13:29:24.026Z,5.83
2022-10-20T13:31:51.128Z,0.90
2022-10-20T13:34:49.184Z,0.90
2022-10-20T13:37:38.357Z,0.97
2022-10-20T13:40:42.295Z,7.53
2022-10-20T13:44:11.056Z,5.40
2022-10-20T13:46:39.147Z,5.93
2022-10-20T13:49:52.883Z,5.27
2022-10-20T13:52:22.419Z,0.80
2022-10-20T13:54:51.252Z,1.10
2022-10-20T13:57:29.825Z,0.90
2022-10-20T14:00:02.329Z,2.60
2022-10-20T14:02:35.887Z,5.20
2022-10-20T14:05:08.894Z,5.60
2022-10-20T14:07:41.259Z,6.20
2022-10-20T14:10:41.121Z,5.77
2022-10-20T14:13:11.002Z,5.93
2022-10-20T14:15:38.359Z,5.23
2022-10-20T14:18:18.237Z,7.63
2022-10-20T14:20:55.339Z,1.37
2022-10-20T14:23:23.885Z,0.90
2022-10-20T14:25:52.356Z,0.97
2022-10-20T14:28:20.737Z,0.83
2022-10-20T14:30:50.330Z,0.80
2022-10-20T14:33:18.229Z,0.70
2022-10-20T14:35:53.459Z,1.33
2022-10-20T14:38:20.607Z,1.00
2022-10-20T14:40:58.516Z,0.80
2022-10-20T14:43:44.149Z,1.40
2022-10-20T14:46:15.108Z,5.67
2022-10-20T14:48:48.105Z,5.43
2022-10-20T14:51:34.337Z,1.50
2022-10-20T14:54:20.139Z,3.40
2022-10-20T14:56:53.305Z,0.87
2022-10-20T14:59:24.234Z,0.80
2022-10-20T15:02:02.542Z,1.07
2022-10-20T15:04:33.444Z,4.07
2022-10-20T15:07:07.778Z,5.23
2022-10-20T15:09:41.877Z,5.33
2022-10-20T15:12:22.880Z,5.27
2022-10-20T15:14:52.903Z,3.63
2022-10-20T15:17:42.115Z,0.80
2022-10-20T15:20:28.091Z,6.00
2022-10-20T15:22:55.575Z,1.27
2022-10-20T15:25:23.315Z,1.77
2022-10-20T15:27:50.615Z,0.93
2022-10-20T15:30:20.179Z,0.87
2022-10-20T15:32:47.839Z,1.20
2022-10-20T15:35:18.034Z,4.43
2022-10-20T15:37:49.108Z,1.90
2022-10-20T15:40:16.390Z,0.97
2022-10-20T15:42:43.537Z,3.53
2022-10-20T15:45:23.922Z,5.77
2022-10-20T15:47:51.799Z,0.70
2022-10-20T15:50:21.693Z,0.83
2022-10-20T15:52:51.301Z,0.90
2022-10-20T15:55:47.174Z,0.80
2022-10-20T15:58:14.423Z,2.70
2022-10-20T16:00:41.619Z,5.40
2022-10-20T16:03:18.278Z,5.50
2022-10-20T16:05:46.651Z,1.47
2022-10-20T16:10:43.745Z,5.17
2022-10-20T16:13:11.660Z,6.63
2022-10-20T16:15:39.004Z,6.43
2022-10-20T16:18:08.941Z,7.17
2022-10-20T16:20:37.230Z,5.83
2022-10-20T16:23:04.271Z,7.80
2022-10-20T16:25:31.418Z,2.70
2022-10-20T16:27:58.610Z,2.60
2022-10-20T16:30:25.867Z,1.20
2022-10-20T16:32:53.627Z,1.50
2022-10-20T16:35:20.746Z,0.90
2022-10-20T16:37:48.077Z,0.80
2022-10-20T16:40:15.226Z,2.00
2022-10-20T16:42:42.246Z,5.33
2022-10-20T16:45:10.000Z,6.10
2022-10-20T16:47:37.630Z,6.93
2022-10-20T16:50:05.451Z,7.23
2022-10-20T16:52:33.121Z,7.83
2022-10-20T16:55:03.339Z,5.33
2022-10-20T16:57:38.499Z,4.20
2022-10-20T17:00:07.672Z,7.07
2022-10-20T17:02:35.941Z,6.13
2022-10-20T17:05:06.649Z,6.23
2022-10-20T17:07:36.542Z,6.77
2022-10-20T17:10:04.094Z,5.83
2022-10-20T17:12:31.277Z,3.10
2022-10-20T17:14:58.270Z,2.53
2022-10-20T17:17:25.772Z,0.60
2022-10-20T17:19:53.096Z,2.23
2022-10-20T17:22:20.244Z,0.70
2022-10-20T17:24:47.276Z,1.20
2022-10-20T17:27:14.561Z,2.40
2022-10-20T17:29:41.705Z,6.30
2022-10-20T17:32:09.031Z,5.77
2022-10-20T17:34:36.338Z,6.63
2022-10-20T17:37:03.412Z,5.90
2022-10-20T17:39:30.534Z,4.40
2022-10-20T17:41:58.081Z,2.73
2022-10-20T17:44:25.500Z,0.90
2022-10-20T17:46:55.214Z,4.73
2022-10-20T17:49:22.744Z,0.80
2022-10-20T17:51:49.757Z,1.10
2022-10-20T17:54:17.009Z,1.13
2022-10-20T17:56:44.221Z,2.50
2022-10-20T18:01:43.633Z,4.00
2022-10-20T18:04:13.376Z,5.63
2022-10-20T18:06:42.213Z,5.67
2022-10-20T18:09:12.279Z,5.73
2022-10-20T18:11:42.141Z,5.87
2022-10-20T18:14:09.422Z,7.80
2022-10-20T18:16:38.347Z,6.20
2022-10-20T18:19:05.924Z,6.87
2022-10-20T18:21:33.171Z,5.77
2022-10-20T18:24:02.925Z,4.37
2022-10-20T18:26:34.353Z,4.53
2022-10-20T18:29:03.161Z,3.43
2022-10-20T18:31:31.524Z,4.33
2022-10-20T18:34:06.967Z,2.23
2022-10-20T18:36:36.971Z,5.13
2022-10-20T18:39:07.710Z,5.70
2022-10-20T18:41:38.378Z,6.50
2022-10-20T18:44:10.172Z,7.13
2022-10-20T18:46:37.762Z,6.53
2022-10-20T18:49:08.774Z,9.63
2022-10-20T18:51:36.607Z,7.73
2022-10-20T18:54:05.469Z,6.10
2022-10-20T18:56:32.743Z,5.53
2022-10-20T18:59:02.076Z,4.93
2022-10-20T19:01:31.986Z,3.97
2022-10-20T19:04:00.099Z,4.07
2022-10-20T19:06:36.799Z,2.00
2022-10-20T19:09:07.064Z,6.03
2022-10-20T19:11:36.356Z,5.27
2022-10-20T19:14:03.808Z,5.83
2022-10-20T19:16:32.572Z,3.70
2022-10-20T19:19:01.686Z,5.00
2022-10-20T19:21:29.400Z,2.13
2022-10-20T19:24:02.900Z,3.83
2022-10-20T19:26:32.724Z,4.43
2022-10-20T19:29:02.539Z,5.47
2022-10-20T19:31:32.753Z,4.57
2022-10-20T19:34:03.146Z,5.43
2022-10-20T19:36:30.595Z,4.57
2022-10-20T19:38:58.176Z,2.37
2022-10-20T19:41:25.931Z,0.80
2022-10-20T19:43:53.825Z,1.77
2022-10-20T19:46:22.778Z,0.80
2022-10-20T19:48:50.926Z,1.33
2022-10-20T19:51:19.808Z,1.00
2022-10-20T19:53:47.818Z,1.23
2022-10-20T19:56:15.046Z,2.40
2022-10-20T19:58:45.734Z,5.53
2022-10-20T20:01:14.379Z,3.47
2022-10-20T20:03:41.809Z,5.77
2022-10-20T20:06:18.275Z,5.37
2022-10-20T20:08:47.438Z,3.07
2022-10-20T20:11:24.017Z,2.33
2022-10-20T20:14:04.451Z,0.80
2022-10-20T20:16:34.780Z,3.13
2022-10-20T20:19:02.092Z,4.60
2022-10-20T20:21:29.449Z,3.43
2022-10-20T20:23:59.915Z,2.30
2022-10-20T20:26:29.296Z,1.77
2022-10-20T20:28:56.989Z,2.27
2022-10-20T20:31:24.983Z,1.10
2022-10-20T20:33:53.090Z,1.13
2022-10-20T20:36:20.435Z,0.90
2022-10-20T20:38:47.664Z,0.73
2022-10-20T20:41:17.163Z,2.70
2022-10-20T20:43:47.648Z,2.57
2022-10-20T20:46:17.985Z,2.13
2022-10-20T20:48:47.666Z,1.93
2022-10-20T20:51:16.984Z,2.07
2022-10-20T20:53:47.023Z,3.90
2022-10-20T20:56:16.197Z,3.07
2022-10-20T20:58:45.576Z,4.30
2022-10-20T21:01:18.173Z,5.13
2022-10-20T21:03:45.586Z,2.13
2022-10-20T21:06:15.112Z,8.43
2022-10-20T21:08:49.543Z,7.00
2022-10-20T21:11:19.953Z,1.10
2022-10-20T21:13:48.960Z,0.90
2022-10-20T21:16:21.149Z,1.17
2022-10-20T21:18:50.142Z,1.10
2022-10-20T21:21:24.939Z,0.80
2022-10-20T21:23:52.905Z,0.80
2022-10-20T21:26:21.308Z,0.90
2022-10-20T21:28:49.506Z,1.93
2022-10-20T21:31:18.738Z,1.10
2022-10-20T21:33:46.824Z,1.43
2022-10-20T21:36:15.376Z,3.47
2022-10-20T21:38:43.543Z,5.63
2022-10-20T21:41:16.138Z,9.43
2022-10-20T21:43:45.480Z,4.30
2022-10-20T21:46:25.844Z,5.47
2022-10-20T21:48:57.812Z,1.77
2022-10-20T21:51:33.419Z,1.23
2022-10-20T21:54:05.894Z,7.03
2022-10-20T21:56:37.424Z,7.93
2022-10-20T21:59:05.581Z,7.40
2022-10-20T22:01:32.836Z,5.73
2022-10-20T22:03:59.933Z,5.47
2022-10-20T22:06:28.265Z,2.57
2022-10-20T22:08:58.043Z,2.17
2022-10-20T22:11:35.302Z,0.90
2022-10-20T22:14:02.880Z,5.10
2022-10-20T22:16:32.410Z,5.00
2022-10-20T22:19:04.881Z,4.50
2022-10-20T22:21:32.478Z,3.00
2022-10-20T22:24:02.991Z,4.57
2022-10-20T22:26:31.065Z,6.33
2022-10-20T22:28:58.823Z,7.40
2022-10-20T22:31:26.332Z,0.87
2022-10-20T22:33:55.517Z,1.07
2022-10-20T22:36:23.662Z,1.33
2022-10-20T22:38:50.885Z,1.90
2022-10-20T22:41:25.433Z,0.90
2022-10-20T22:43:53.383Z,2.07
2022-10-20T22:46:20.721Z,0.90
2022-10-20T22:48:47.916Z,0.90
2022-10-20T22:51:15.538Z,2.27
2022-10-20T22:53:42.813Z,9.13
2022-10-20T22:56:19.015Z,6.37
2022-10-20T22:58:46.726Z,1.73
2022-10-20T23:01:20.136Z,4.20
2022-10-20T23:03:47.739Z,1.10
2022-10-20T23:06:20.742Z,2.10
2022-10-20T23:08:50.502Z,2.50
2022-10-20T23:11:18.183Z,0.70
2022-10-20T23:13:46.077Z,2.20
2022-10-20T23:16:13.585Z,5.13
2022-10-20T23:18:41.351Z,7.60
2022-10-20T23:21:14.313Z,10.73
2022-10-20T23:23:41.499Z,7.30
2022-10-20T23:26:08.783Z,7.03
2022-10-20T23:28:36.696Z,7.43
2022-10-20T23:31:09.787Z,11.17
2022-10-20T23:33:38.489Z,7.07
2022-10-20T23:36:06.123Z,6.27
2022-10-20T23:38:33.293Z,8.57
2022-10-20T23:41:00.452Z,5.97
2022-10-20T23:43:27.703Z,3.00
2022-10-20T23:45:54.890Z,0.90
2022-10-20T23:48:22.029Z,0.90
2022-10-20T23:50:49.075Z,1.07
2022-10-20T23:53:16.220Z,1.20
2022-10-20T23:55:43.925Z,5.13
2022-10-20T23:58:11.451Z,8.00
